createdAt,value
2022-10-14T00:01:48.781Z,98538.47
2022-10-14T00:04:18.553Z,98531.84
2022-10-14T00:06:48.299Z,98528.63
2022-10-14T00:09:20.603Z,98533.44
2022-10-14T00:11:50.565Z,98526.75
2022-10-14T00:14:23.737Z,98529.09
2022-10-14T00:16:56.546Z,98531.41
2022-10-14T00:19:26.340Z,98522.84
2022-10-14T00:21:56.020Z,98535.44
2022-10-14T00:24:28.365Z,98528.38
2022-10-14T00:26:58.062Z,98523.31
2022-10-14T00:29:27.812Z,98524.03
2022-10-14T00:31:57.637Z,98525.19
2022-10-14T00:34:30.505Z,98524.69
2022-10-14T00:37:00.406Z,98524.75
2022-10-14T00:39:32.762Z,98523.91
2022-10-14T00:42:02.624Z,98525.50
2022-10-14T00:45:04.237Z,98528.94
2022-10-14T00:47:35.445Z,98528.25
2022-10-14T00:50:05.939Z,98520.81
2022-10-14T00:52:35.855Z,98523.88
2022-10-14T00:55:11.067Z,98519.16
2022-10-14T00:57:41.417Z,98531.34
2022-10-14T01:00:14.420Z,98517.25
2022-10-14T01:02:45.300Z,98526.97
2022-10-14T01:05:17.901Z,98524.63
2022-10-14T01:08:02.112Z,98518.44
2022-10-14T01:10:44.564Z,98525.16
2022-10-14T01:13:26.654Z,98522.72
2022-10-14T01:16:07.708Z,98520.34
2022-10-14T01:18:52.044Z,98515.22
2022-10-14T01:21:30.033Z,98520.72
2022-10-14T01:24:26.147Z,98516.03
2022-10-14T01:27:28.267Z,98514.50
2022-10-14T01:30:06.829Z,98512.94
2022-10-14T01:32:41.233Z,98508.28
2022-10-14T01:35:21.012Z,98512.16
2022-10-14T01:37:56.114Z,98505.53
2022-10-14T01:40:31.804Z,98501.59
2022-10-14T01:43:04.111Z,98500.44
2022-10-14T01:45:39.433Z,98489.78
2022-10-14T01:48:09.597Z,98496.06
2022-10-14T01:50:41.827Z,98499.25
2022-10-14T01:53:15.567Z,98499.25
2022-10-14T01:55:48.869Z,98496.50
2022-10-14T01:58:21.142Z,98498.06
2022-10-14T02:00:53.756Z,98505.97
2022-10-14T02:03:23.497Z,98505.97
2022-10-14T02:05:57.920Z,98510.66
2022-10-14T02:08:36.932Z,98507.13
2022-10-14T02:11:14.659Z,98502.78
2022-10-14T02:13:54.463Z,98503.59
2022-10-14T02:16:34.969Z,98512.25
2022-10-14T02:19:09.872Z,98498.44
2022-10-14T02:21:42.959Z,98512.19
2022-10-14T02:24:18.511Z,98507.91
2022-10-14T02:26:50.338Z,98503.56
2022-10-14T02:29:22.272Z,98507.50
2022-10-14T02:31:56.423Z,98499.97
2022-10-14T02:34:28.329Z,98505.13
2022-10-14T02:36:58.983Z,98509.47
2022-10-14T02:39:33.183Z,98501.16
2022-10-14T02:42:03.547Z,98502.34
2022-10-14T02:44:33.337Z,98499.63
2022-10-14T02:47:05.755Z,98499.22
2022-10-14T02:49:35.519Z,98496.47
2022-10-14T02:52:05.338Z,98496.47
2022-10-14T02:54:35.047Z,98500.44
2022-10-14T02:57:04.741Z,98497.66
2022-10-14T02:59:34.539Z,98487.50
2022-10-14T03:02:07.548Z,98491.75
2022-10-14T03:04:37.747Z,98479.22
2022-10-14T03:07:08.088Z,98476.91
2022-10-14T03:09:37.770Z,98470.97
2022-10-14T03:12:07.863Z,98463.03
2022-10-14T03:14:37.652Z,98460.31
2022-10-14T03:17:09.963Z,98461.53
2022-10-14T03:19:39.746Z,98463.88
2022-10-14T03:22:09.461Z,98466.63
2022-10-14T03:24:39.186Z,98452.13
2022-10-14T03:27:08.920Z,98453.72
2022-10-14T03:29:38.631Z,98447.75
2022-10-14T03:32:11.180Z,98442.56
2022-10-14T03:34:40.843Z,98445.72
2022-10-14T03:37:10.600Z,98435.16
2022-10-14T03:39:40.355Z,98432.00
2022-10-14T03:42:10.328Z,98418.75
2022-10-14T03:44:40.036Z,98419.19
2022-10-14T03:47:12.387Z,98422.75
2022-10-14T03:49:42.200Z,98414.09
2022-10-14T03:52:11.960Z,98419.59
2022-10-14T03:54:41.853Z,98411.31
2022-10-14T03:57:11.612Z,98414.44
2022-10-14T03:59:42.096Z,98406.25
2022-10-14T04:02:14.489Z,98404.31
2022-10-14T04:04:44.338Z,98407.03
2022-10-14T04:07:14.040Z,98400.72
2022-10-14T04:09:43.763Z,98393.28
2022-10-14T04:12:13.499Z,98396.06
2022-10-14T04:14:43.192Z,98398.00
2022-10-14T04:17:15.588Z,98392.84
2022-10-14T04:19:45.366Z,98399.16
2022-10-14T04:22:15.055Z,98394.44
2022-10-14T04:24:44.941Z,98392.84
2022-10-14T04:27:14.648Z,98392.09
2022-10-14T04:29:44.451Z,98382.69
2022-10-14T04:32:16.828Z,98379.53
2022-10-14T04:34:46.603Z,98380.69
2022-10-14T04:37:16.399Z,98388.47
2022-10-14T04:39:46.118Z,98377.16
2022-10-14T04:42:16.282Z,98377.13
2022-10-14T04:44:46.006Z,98371.69
2022-10-14T04:47:18.329Z,98376.34
2022-10-14T04:49:48.050Z,98375.53
2022-10-14T04:52:17.895Z,98370.78
2022-10-14T04:54:47.596Z,98366.16
2022-10-14T04:57:17.292Z,98366.16
2022-10-14T04:59:46.998Z,98361.44
2022-10-14T05:02:19.493Z,98359.06
2022-10-14T05:04:49.576Z,98359.84
2022-10-14T05:07:21.111Z,98355.59
2022-10-14T05:09:55.479Z,98349.31
2022-10-14T05:12:26.465Z,98352.47
2022-10-14T05:14:56.332Z,98344.25
2022-10-14T05:17:28.708Z,98343.44
2022-10-14T05:19:58.431Z,98338.72
2022-10-14T05:22:28.201Z,98346.16
2022-10-14T05:24:57.919Z,98344.59
2022-10-14T05:27:27.902Z,98329.69
2022-10-14T05:29:57.673Z,98329.31
2022-10-14T05:32:30.103Z,98326.19
2022-10-14T05:34:59.759Z,98324.59
2022-10-14T05:37:29.484Z,98320.66
2022-10-14T05:39:59.369Z,98324.56
2022-10-14T05:42:29.106Z,98322.63
2022-10-14T05:44:58.810Z,98319.09
2022-10-14T05:47:31.200Z,98315.97
2022-10-14T05:50:03.453Z,98306.50
2022-10-14T05:52:34.317Z,98314.81
2022-10-14T05:55:04.231Z,98306.97
2022-10-14T05:57:33.844Z,98311.69
2022-10-14T06:00:04.109Z,98312.88
2022-10-14T06:02:36.416Z,98326.22
2022-10-14T06:05:06.204Z,98325.41
2022-10-14T06:07:38.147Z,98315.22
2022-10-14T06:10:08.559Z,98320.69
2022-10-14T06:12:38.224Z,98309.69
2022-10-14T06:15:08.991Z,98304.22
2022-10-14T06:17:41.299Z,98306.56
2022-10-14T06:20:12.065Z,98310.91
2022-10-14T06:22:41.753Z,98317.56
2022-10-14T06:25:12.389Z,98312.09
2022-10-14T06:27:42.024Z,98324.28
2022-10-14T06:30:13.623Z,98324.28
2022-10-14T06:32:46.175Z,98325.44
2022-10-14T06:35:16.043Z,98321.09
2022-10-14T06:37:47.973Z,98329.38
2022-10-14T06:40:17.906Z,98323.09
2022-10-14T06:42:47.630Z,98322.31
2022-10-14T06:45:17.385Z,98328.19
2022-10-14T06:47:49.972Z,98318.78
2022-10-14T06:50:19.814Z,98318.00
2022-10-14T06:52:49.600Z,98322.28
2022-10-14T06:55:19.801Z,98325.06
2022-10-14T06:57:49.568Z,98330.53
2022-10-14T07:00:20.634Z,98326.63
2022-10-14T07:02:52.914Z,98324.69
2022-10-14T07:05:22.711Z,98326.63
2022-10-14T07:07:52.414Z,98320.75
2022-10-14T07:10:22.131Z,98321.94
2022-10-14T07:12:51.875Z,98319.97
2022-10-14T07:15:21.558Z,98315.28
2022-10-14T07:17:53.926Z,98312.09
2022-10-14T07:20:23.644Z,98322.34
2022-10-14T07:22:57.399Z,98322.34
2022-10-14T07:25:27.043Z,98325.88
2022-10-14T07:27:56.948Z,98316.84
2022-10-14T07:30:26.700Z,98311.31
2022-10-14T07:32:59.028Z,98314.06
2022-10-14T07:35:29.610Z,98316.03
2022-10-14T07:38:02.219Z,98321.91
2022-10-14T07:40:31.964Z,98323.09
2022-10-14T07:43:01.671Z,98326.63
2022-10-14T07:45:35.634Z,98327.41
2022-10-14T07:48:08.228Z,98331.72
2022-10-14T07:50:37.960Z,98329.78
2022-10-14T07:53:07.660Z,98332.53
2022-10-14T07:55:37.450Z,98338.03
2022-10-14T07:58:07.157Z,98341.19
2022-10-14T08:00:36.934Z,98333.72
2022-10-14T08:03:09.260Z,98329.44
2022-10-14T08:05:39.257Z,98336.09
2022-10-14T08:08:09.128Z,98326.66
2022-10-14T08:10:39.619Z,98336.47
2022-10-14T08:13:09.688Z,98329.44
2022-10-14T08:15:42.815Z,98325.91
2022-10-14T08:18:15.163Z,98327.50
2022-10-14T08:20:44.842Z,98329.03
2022-10-14T08:23:17.508Z,98312.94
2022-10-14T08:25:51.490Z,98321.59
2022-10-14T08:28:21.260Z,98312.56
2022-10-14T08:30:52.933Z,98319.25
2022-10-14T08:33:25.240Z,98314.91
2022-10-14T08:35:55.258Z,98310.97
2022-10-14T08:38:26.660Z,98312.13
2022-10-14T08:41:06.977Z,98308.59
2022-10-14T08:43:39.770Z,98312.53
2022-10-14T08:46:16.719Z,98301.94
2022-10-14T08:48:51.320Z,98305.84
2022-10-14T08:51:23.582Z,98305.06
2022-10-14T08:53:56.925Z,98302.28
2022-10-14T08:56:27.352Z,98294.47
2022-10-14T08:59:04.128Z,98300.75
2022-10-14T09:01:36.283Z,98297.97
2022-10-14T09:04:10.706Z,98298.72
2022-10-14T09:06:44.122Z,98301.88
2022-10-14T09:09:21.723Z,98303.03
2022-10-14T09:11:55.526Z,98294.00
2022-10-14T09:14:29.609Z,98300.28
2022-10-14T09:17:05.069Z,98302.22
2022-10-14T09:19:46.899Z,98303.38
2022-10-14T09:22:18.412Z,98288.41
2022-10-14T09:24:48.711Z,98286.44
2022-10-14T09:27:22.096Z,98298.22
2022-10-14T09:29:54.605Z,98296.22
2022-10-14T09:32:31.416Z,98291.53
2022-10-14T09:35:04.051Z,98291.53
2022-10-14T09:37:36.414Z,98297.03
2022-10-14T09:40:17.341Z,98286.81
2022-10-14T09:42:52.774Z,98283.63
2022-10-14T09:45:25.260Z,98280.09
2022-10-14T09:47:58.519Z,98271.41
2022-10-14T09:50:36.239Z,98271.06
2022-10-14T09:53:10.913Z,98265.09
2022-10-14T09:55:49.580Z,98266.63
2022-10-14T09:58:22.114Z,98255.59
2022-10-14T10:01:02.509Z,98248.88
2022-10-14T10:03:35.752Z,98261.03
2022-10-14T10:06:10.899Z,98257.91
2022-10-14T10:08:43.336Z,98261.09
2022-10-14T10:11:15.154Z,98255.59
2022-10-14T10:13:47.457Z,98251.22
2022-10-14T10:16:31.480Z,98249.94
2022-10-14T10:19:21.574Z,98253.47
2022-10-14T10:21:53.803Z,98242.84
2022-10-14T10:24:28.787Z,98230.66
2022-10-14T10:27:00.712Z,98232.94
2022-10-14T10:29:35.516Z,98232.13
2022-10-14T10:32:13.969Z,98223.38
2022-10-14T10:34:54.173Z,98228.13
2022-10-14T10:37:34.585Z,98222.69
2022-10-14T10:40:25.166Z,98217.09
2022-10-14T10:43:08.000Z,98205.66
2022-10-14T10:45:47.879Z,98204.03
2022-10-14T10:48:23.560Z,98202.78
2022-10-14T10:51:00.853Z,98207.38
2022-10-14T10:53:49.788Z,98183.66
2022-10-14T10:56:29.433Z,98188.78
2022-10-14T10:59:14.635Z,98187.53
2022-10-14T11:01:53.083Z,98189.09
2022-10-14T11:04:31.091Z,98187.84
2022-10-14T11:07:27.014Z,98191.09
2022-10-14T11:10:36.804Z,98189.81
2022-10-14T11:13:47.211Z,98174.84
2022-10-14T11:16:44.561Z,98174.38
2022-10-14T11:19:23.789Z,98176.28
2022-10-14T11:22:04.728Z,98167.03
2022-10-14T11:24:45.369Z,98169.00
2022-10-14T11:27:25.017Z,98159.06
2022-10-14T11:30:13.857Z,98154.75
2022-10-14T11:32:59.306Z,98154.38
2022-10-14T11:35:38.006Z,98156.28
2022-10-14T11:38:25.183Z,98161.81
2022-10-14T11:41:03.641Z,98157.53
2022-10-14T11:43:44.562Z,98171.63
2022-10-14T11:46:15.986Z,98167.31
2022-10-14T11:48:51.320Z,98161.66
2022-10-14T11:51:29.729Z,98159.19
2022-10-14T11:54:06.568Z,98152.22
2022-10-14T11:56:46.891Z,98152.97
2022-10-14T11:59:37.615Z,98149.38
2022-10-14T12:02:31.736Z,98144.19
2022-10-14T12:05:08.633Z,98146.66
2022-10-14T12:07:43.645Z,98141.41
2022-10-14T12:10:23.401Z,98135.59
2022-10-14T12:12:54.266Z,98119.34
2022-10-14T12:18:19.455Z,98118.06
2022-10-14T12:20:58.174Z,98120.81
2022-10-14T12:23:35.786Z,98112.94
2022-10-14T12:26:13.435Z,98104.28
2022-10-14T12:28:43.742Z,98110.16
2022-10-14T12:31:36.245Z,98101.28
2022-10-14T12:34:29.299Z,98103.97
2022-10-14T12:36:59.078Z,98101.44
2022-10-14T12:39:34.792Z,98092.69
2022-10-14T12:42:07.381Z,98094.25
2022-10-14T12:44:45.729Z,98091.38
2022-10-14T12:47:29.235Z,98096.53
2022-10-14T12:50:02.981Z,98086.28
2022-10-14T12:52:40.220Z,98087.88
2022-10-14T12:55:21.014Z,98074.88
2022-10-14T12:57:57.527Z,98074.06
2022-10-14T13:00:36.816Z,98077.88
2022-10-14T13:03:22.301Z,98073.75
2022-10-14T13:05:52.588Z,98076.06
2022-10-14T13:08:30.418Z,98075.84
2022-10-14T13:11:13.549Z,98075.66
2022-10-14T13:14:02.241Z,98064.00
2022-10-14T13:17:09.909Z,98066.41
2022-10-14T13:19:46.391Z,98066.75
2022-10-14T13:22:43.766Z,98070.66
2022-10-14T13:25:24.675Z,98063.06
2022-10-14T13:28:22.268Z,98059.41
2022-10-14T13:31:02.100Z,98058.69
2022-10-14T13:33:40.117Z,98063.53
2022-10-14T13:36:19.446Z,98061.03
2022-10-14T13:38:56.736Z,98061.44
2022-10-14T13:41:31.239Z,98064.00
2022-10-14T13:44:03.928Z,98066.25
2022-10-14T13:46:39.587Z,98068.69
2022-10-14T13:51:53.291Z,98063.19
2022-10-14T13:54:25.533Z,98055.16
2022-10-14T14:02:51.857Z,98061.06
2022-10-14T14:05:24.881Z,98062.97
2022-10-14T14:08:37.214Z,98064.53
2022-10-14T14:11:15.656Z,98059.78
2022-10-14T14:13:59.003Z,98048.97
2022-10-14T14:16:34.064Z,98047.72
2022-10-14T14:19:08.739Z,98043.47
2022-10-14T14:21:39.257Z,98034.34
2022-10-14T14:24:20.869Z,98027.19
2022-10-14T14:26:50.803Z,98036.69
2022-10-14T14:29:22.241Z,98039.94
2022-10-14T14:32:06.138Z,98033.94
2022-10-14T14:34:38.966Z,98041.53
2022-10-14T14:40:03.304Z,98039.53
2022-10-14T14:42:36.860Z,98043.56
2022-10-14T14:45:15.425Z,98034.34
2022-10-14T14:47:46.030Z,98045.16
2022-10-14T14:50:33.716Z,98041.63
2022-10-14T14:53:07.401Z,98032.97
2022-10-14T14:55:49.071Z,98040.44
2022-10-14T14:58:31.349Z,98032.59
2022-10-14T15:01:01.834Z,98036.19
2022-10-14T15:03:34.719Z,98025.94
2022-10-14T15:06:06.665Z,98024.06
2022-10-14T15:08:39.956Z,98030.69
2022-10-14T15:13:53.001Z,98022.13
2022-10-14T15:16:36.350Z,98024.50
2022-10-14T15:19:34.224Z,98022.88
2022-10-14T15:22:28.631Z,98024.81
2022-10-14T15:25:01.715Z,98025.31
2022-10-14T15:27:46.704Z,98031.38
2022-10-14T15:30:37.608Z,98031.69
2022-10-14T15:33:16.696Z,98027.09
2022-10-14T15:35:47.873Z,98026.69
2022-10-14T15:38:19.903Z,98020.75
2022-10-14T15:40:51.441Z,98017.59
2022-10-14T15:43:25.853Z,98013.59
2022-10-14T15:46:10.782Z,98016.06
2022-10-14T15:48:42.078Z,98013.50
2022-10-14T15:51:18.115Z,98015.16
2022-10-14T15:53:47.835Z,98009.38
2022-10-14T15:56:17.657Z,98008.19
2022-10-14T15:58:49.925Z,98008.19
2022-10-14T16:01:22.250Z,98011.81
2022-10-14T16:03:52.854Z,98012.31
2022-10-14T16:06:22.934Z,98006.81
2022-10-14T16:08:53.239Z,98004.84
2022-10-14T16:11:26.379Z,98011.06
2022-10-14T16:13:59.207Z,97998.91
2022-10-14T16:16:33.863Z,98007.16
2022-10-14T16:19:05.047Z,98004.09
2022-10-14T16:21:34.874Z,98005.66
2022-10-14T16:24:05.868Z,97999.00
2022-10-14T16:26:37.218Z,98002.13
2022-10-14T16:29:10.515Z,98004.16
2022-10-14T16:31:40.136Z,98008.88
2022-10-14T16:34:09.705Z,98000.13
2022-10-14T16:36:39.335Z,98014.34
2022-10-14T16:39:09.429Z,98014.47
2022-10-14T16:41:39.090Z,98009.38
2022-10-14T16:44:24.649Z,98011.03
2022-10-14T16:47:07.785Z,98008.72
2022-10-14T16:49:37.376Z,98010.31
2022-10-14T16:52:07.231Z,98005.50
2022-10-14T16:54:36.856Z,98007.06
2022-10-14T16:57:07.418Z,98005.25
2022-10-14T16:59:39.977Z,98004.75
2022-10-14T17:02:11.569Z,98017.31
2022-10-14T17:04:41.379Z,98022.44
2022-10-14T17:07:12.555Z,98022.88
2022-10-14T17:09:42.796Z,98022.88
2022-10-14T17:12:14.138Z,98019.69
2022-10-14T17:14:46.875Z,98018.00
2022-10-14T17:17:16.819Z,98025.63
2022-10-14T17:19:48.661Z,98014.38
2022-10-14T17:22:21.062Z,98009.66
2022-10-14T17:24:51.324Z,98011.53
2022-10-14T17:27:24.251Z,98009.41
2022-10-14T17:29:56.485Z,98007.25
2022-10-14T17:32:28.280Z,98004.03
2022-10-14T17:34:57.918Z,97995.91
2022-10-14T17:37:28.537Z,97994.69
2022-10-14T17:39:58.412Z,97991.66
2022-10-14T17:42:28.149Z,97998.38
2022-10-14T17:45:00.432Z,98002.22
2022-10-14T17:47:30.136Z,97992.81
2022-10-14T17:49:59.779Z,98008.88
2022-10-14T17:52:29.460Z,97996.41
2022-10-14T17:55:01.387Z,98008.50
2022-10-14T17:57:31.495Z,98007.47
2022-10-14T18:00:03.987Z,98006.34
2022-10-14T18:02:36.633Z,98000.19
2022-10-14T18:05:06.600Z,98000.06
2022-10-14T18:07:38.698Z,98002.47
2022-10-14T18:10:10.228Z,98005.22
2022-10-14T18:12:41.202Z,98000.44
2022-10-14T18:15:13.962Z,97992.59
2022-10-14T18:17:43.746Z,97988.72
2022-10-14T18:20:13.624Z,97990.13
2022-10-14T18:22:43.481Z,97990.97
2022-10-14T18:25:15.175Z,97983.91
2022-10-14T18:27:44.912Z,97979.56
2022-10-14T18:30:17.556Z,97984.75
2022-10-14T18:32:47.205Z,97973.31
2022-10-14T18:35:16.876Z,97983.91
2022-10-14T18:37:46.580Z,97975.75
2022-10-14T18:40:18.399Z,97974.13
2022-10-14T18:42:48.137Z,97968.28
2022-10-14T18:45:20.485Z,97967.44
2022-10-14T18:47:50.192Z,97973.22
2022-10-14T18:50:20.006Z,97964.63
2022-10-14T18:52:49.736Z,97969.44
2022-10-14T18:55:19.480Z,97956.88
2022-10-14T18:57:49.276Z,97959.28
2022-10-14T19:00:22.077Z,97966.81
2022-10-14T19:02:51.762Z,97952.00
2022-10-14T19:05:21.491Z,97950.53
2022-10-14T19:07:51.798Z,97959.44
2022-10-14T19:10:21.580Z,97950.03
2022-10-14T19:12:51.340Z,97950.84
2022-10-14T19:15:26.336Z,97941.47
2022-10-14T19:17:56.704Z,97936.66
2022-10-14T19:20:26.420Z,97934.94
2022-10-14T19:22:56.779Z,97932.03
2022-10-14T19:25:26.932Z,97934.78
2022-10-14T19:27:56.876Z,97930.09
2022-10-14T19:30:29.222Z,97924.63
2022-10-14T19:32:58.923Z,97913.59
2022-10-14T19:35:28.710Z,97912.03
2022-10-14T19:37:58.421Z,97911.63
2022-10-14T19:40:28.296Z,97902.22
2022-10-14T19:42:57.993Z,97904.34
2022-10-14T19:45:30.290Z,97899.97
2022-10-14T19:47:59.996Z,97903.09
2022-10-14T19:50:29.647Z,97894.19
2022-10-14T19:52:59.343Z,97888.34
2022-10-14T19:55:28.996Z,97884.34
2022-10-14T19:57:58.694Z,97889.56
2022-10-14T20:00:31.001Z,97886.41
2022-10-14T20:03:00.889Z,97884.13
2022-10-14T20:05:31.724Z,97879.38
2022-10-14T20:08:02.084Z,97872.31
2022-10-14T20:10:31.952Z,97873.19
2022-10-14T20:13:01.634Z,97868.31
2022-10-14T20:15:33.888Z,97871.56
2022-10-14T20:18:03.554Z,97863.81
2022-10-14T20:20:33.522Z,97862.69
2022-10-14T20:23:03.398Z,97865.41
2022-10-14T20:25:33.277Z,97848.91
2022-10-14T20:28:03.020Z,97850.84
2022-10-14T20:30:35.477Z,97859.13
2022-10-14T20:33:05.170Z,97836.28
2022-10-14T20:35:35.142Z,97846.84
2022-10-14T20:38:05.032Z,97852.72
2022-10-14T20:40:37.273Z,97844.84
2022-10-14T20:43:07.138Z,97833.19
2022-10-14T20:45:39.438Z,97834.78
2022-10-14T20:48:09.245Z,97836.38
2022-10-14T20:50:39.052Z,97830.06
2022-10-14T20:53:08.785Z,97833.94
2022-10-14T20:55:38.468Z,97829.81
2022-10-14T20:58:08.384Z,97819.59
2022-10-14T21:00:40.835Z,97820.75
2022-10-14T21:03:10.440Z,97825.81
2022-10-14T21:05:40.683Z,97823.78
2022-10-14T21:08:10.340Z,97815.25
2022-10-14T21:10:40.034Z,97814.53
2022-10-14T21:13:09.784Z,97804.28
2022-10-14T21:15:42.093Z,97808.13
2022-10-14T21:18:11.748Z,97805.75
2022-10-14T21:20:41.412Z,97803.94
2022-10-14T21:23:11.151Z,97801.16
2022-10-14T21:25:40.879Z,97799.50
2022-10-14T21:28:13.141Z,97804.22
2022-10-14T21:30:46.029Z,97789.28
2022-10-14T21:33:15.907Z,97784.06
2022-10-14T21:35:45.647Z,97788.34
2022-10-14T21:38:15.391Z,97779.06
2022-10-14T21:40:45.129Z,97775.97
2022-10-14T21:43:14.863Z,97781.97
2022-10-14T21:45:47.169Z,97769.72
2022-10-14T21:48:17.163Z,97761.09
2022-10-14T21:50:46.882Z,97759.34
2022-10-14T21:53:16.642Z,97754.88
2022-10-14T21:55:46.297Z,97747.09
2022-10-14T21:58:15.882Z,97756.56
2022-10-14T22:00:48.096Z,97748.69
2022-10-14T22:03:17.958Z,97738.41
2022-10-14T22:05:47.773Z,97733.66
2022-10-14T22:08:23.017Z,97736.38
2022-10-14T22:10:52.733Z,97732.94
2022-10-14T22:13:22.389Z,97725.47
2022-10-14T22:15:54.975Z,97724.69
2022-10-14T22:18:25.542Z,97732.34
2022-10-14T22:21:05.042Z,97733.94
2022-10-14T22:23:34.991Z,97729.59
2022-10-14T22:26:05.893Z,97726.97
2022-10-14T22:28:36.014Z,97727.03
2022-10-14T22:31:13.518Z,97724.28
2022-10-14T22:33:43.720Z,97712.09
2022-10-14T22:36:19.412Z,97712.84
2022-10-14T22:38:53.245Z,97697.47
2022-10-14T22:41:23.704Z,97702.13
2022-10-14T22:43:54.823Z,97714.59
2022-10-14T22:46:29.440Z,97695.03
2022-10-14T22:49:02.039Z,97699.38
2022-10-14T22:51:33.538Z,97694.72
2022-10-14T22:54:03.322Z,97684.63
2022-10-14T22:56:34.320Z,97691.06
2022-10-14T22:59:06.936Z,97690.25
2022-10-14T23:01:39.755Z,97689.44
2022-10-14T23:04:09.765Z,97692.66
2022-10-14T23:06:39.628Z,97677.34
2022-10-14T23:09:09.369Z,97673.75
2022-10-14T23:11:39.143Z,97676.16
2022-10-14T23:14:08.877Z,97684.72
2022-10-14T23:16:41.998Z,97674.31
2022-10-14T23:19:12.020Z,97674.72
2022-10-14T23:21:42.203Z,97671.59
2022-10-14T23:24:14.383Z,97669.22
2022-10-14T23:26:44.151Z,97659.81
2022-10-14T23:29:14.398Z,97660.56
2022-10-14T23:31:46.689Z,97663.59
2022-10-14T23:34:17.150Z,97658.88
2022-10-14T23:36:46.797Z,97658.09
2022-10-14T23:39:17.891Z,97658.19
2022-10-14T23:41:47.566Z,97650.81
2022-10-14T23:44:17.291Z,97659.94
2022-10-14T23:46:50.468Z,97656.69
2022-10-14T23:49:26.007Z,97653.09
2022-10-14T23:51:56.855Z,97656.22
2022-10-14T23:54:26.731Z,97658.47
2022-10-14T23:56:56.380Z,97654.53
2022-10-14T23:59:26.036Z,97649.41
